Pagrindinis puslapis
METAR-TAF:

METAR-TAF

Oro uostai :

Montseratas, Montseratas

platuma: 16-47-29N, ilguma: 062-11-36W, Aukštis: 168 m

Dabartinis oras

Ataskaita buvo paskelbta 4 valandos ir 33 minutes, ne 22:00 UTC
Vėjas 10 kt iš Rytų
Temperatūra 26°C
Drėgmė 84%
Slėgis 1015 hPa
Matomumas 10 km arba daugiau
Mažai debesys ne aukštis 1800 ft

METAR: TRPG 282200Z 10010KT 9999 FEW018 26/23 Q1015

Laikas: 22:33 (02:33 UTC)

Prognozė

Ataskaita buvo paskelbta 9 valandos ir 33 minutes, ne 17:00 UTC
Prognozė galioja nuo 28 metu 18 UTC su 29 metu 18 UTC
Vėjas 10 kt iš Rytų
Matomumas 10 km arba daugiau
Išsisklaidę debesys ne aukštis 2000 ft

TAF: TRPG 281700Z 2818/2918 09010KT 9999 SCT020

Orai ataskaitas ir orų prognozės (METAR, TAF).

turimą stotys yra geltonos ir raudonos taškus žemėlapyje.

Perkelti pele per norėdami pamatyti stoties vardą.

Tada spustelėkite, norėdami matyti oro stebėjimo ir prognozės.

Norėdami pakeisti žemėlapį: spustelėkite ant žalios mygtukų su juodo kryžiaus žemyn,; žalią mygtuką su brūkšneliu, jei norite nutolinti; arba žalių rodyklių gretimoms žemėlapius.


METAR-TAF: